Unity House, Pennsylvania
Current Conditions -  °F | °C
As of 12:53 AM on Thursday 18 Dec 2014 (Local Time) from KMPO Reporting Station
Light Snow Light Snow  
Wind Chill: 19°   Ceiling: 1500
Heat Index: 29°   Visibility: 1.7mi
Dew Point: 25°   Wind: 12mph
Humidity: 85%   Direction: 300°WNW
Pressure: 29.85"   Gusts: NA
Location:  41.15°N, 75.03°W
Report Text: KMPO 180553Z AUTO 30010KT 1 3/4SM -SN BR OVC015 M02/M04 A2985 RMK AO2 UPB09E25SNB25 SLP124 P0000 60000 T10171039 10011 21017 55001
Loading
Personal Weather Stations






























Interactive Weather Map New forecast layout! Learn more

10-Day Weather Forecast

Advertisements
Track Severe Weather on mobile